AirNav   Phillips 66 Aviation Fuel
 
 896 users online  

KAOV Ava Bill Martin Memorial Airport
Ava, Missouri, USA

GOING TO AVA?


FAA INFORMATION EFFECTIVE 25 APRIL 2019

Location

FAA Identifier: AOV
Lat/Long: 36-58-18.7940N / 092-40-55.0050W
36-58.313233N / 092-40.916750W
36.9718872 / -92.6819458
(estimated)
Elevation: 1311 ft. / 399.6 m (surveyed)
Variation: 02E (2000)
From city: 2 miles NW of AVA, MO
Time zone: UTC -5 (UTC -6 during Standard Time)
Zip code: 65608

Airport Operations

Airport use: Open to the public
Control tower: no
ARTCC: KANSAS CITY CENTER
FSS: COLUMBIA FLIGHT SERVICE STATION
NOTAMs facility: COU (NOTAM-D service available)
Attendance: UNATNDD
Wind indicator: lighted
Segmented circle: yes
Lights: ACTVT MIRL RY 13/31 - CTAF.
Beacon: white-green (lighted land airport)
Operates sunset to sunrise.

Airport Communications

CTAF/UNICOM: 122.7
SPRINGFIELD APPROACH: 126.35
SPRINGFIELD DEPARTURE: 126.35

Nearby radio navigation aids

VOR radial/distance  VOR name  Freq  Var
DGDr107/9.8DOGWOOD VORTAC109.4001E
SGFr122/38.8SPRINGFIELD VORTAC116.9004E

Airport Services

Fuel available: 100LL
Parking: tiedowns
Airframe service: MAJOR
Powerplant service: MAJOR
Bottled oxygen: NONE
Bulk oxygen: NONE

Runway Information

Runway 13/31

Dimensions: 3634 x 50 ft. / 1108 x 15 m
Surface: asphalt, in good condition
Runway edge lights: medium intensity
Runway edge markings: MARKINGS FADED.
RUNWAY 13  RUNWAY 31
Latitude: 36-58.534085N36-58.093648N
Longitude: 092-41.169547W092-40.663890W
Elevation: 1277.0 ft.1311.0 ft.
Traffic pattern: leftleft
Runway heading: 135 magnetic, 137 true315 magnetic, 317 true
Markings: nonprecision, in fair conditionnonprecision, in fair condition
Visual slope indicator: 2-box SAVASI on left (3.00 degrees glide path)
Touchdown point: yes, no lightsyes, no lights
Obstructions: 33 ft. trees, 235 ft. from runway, 197 ft. right of centerline, 1:1 slope to clear
TREES 10-35' TALL, 10-175' FROM RUNWAY END, 150-250 FT RIGHT
none

Airport Ownership and Management from official FAA records

Ownership: Publicly-owned
Owner: CITY OF AVA
127 SW 2ND AVE, PO BOX 967
AVA, MO 65608
Phone 417-683-5516
Manager: DAVID DAVIDSON
PO BOX 967
AVA, MO 65608
Phone 417-683-3169

Airport Operational Statistics

Aircraft based on the field: 10
Single engine airplanes: 8
Multi engine airplanes: 2
  • ULTRALIGHT ACTIVITY ON & INVOF ARPT.
    
Aircraft operations: avg 93/week *
79% local general aviation
11% military
10% transient general aviation
<1% air taxi
* for 12-month period ending 31 December 2015

Additional Remarks

NTSD RY SAFETY AREA BYD RY 13 END, INSUF LENGTH AND LARGE DROP OFF.
100LL SELF SVC CREDIT CARD AVBL 24 HRS.
CLICK PCL 5 TIMES TO UNLOCK TERMINAL DOOR.

Instrument Procedures

NOTE: All procedures below are presented as PDF files. If you need a reader for these files, you should download the free Adobe Reader.

NOT FOR NAVIGATION. Please procure official charts for flight.
FAA instrument procedures published for use from 25 April 2019 at 0901Z to 23 May 2019 at 0900Z.

 
IAPs - Instrument Approach Procedures
RNAV (GPS) RWY 13   download (170KB)
RNAV (GPS) RWY 31   download (160KB)
VOR-A   download (165KB)
NOTE: Special Take-Off Minimums/Departure Procedures apply   download (158KB)

Other nearby airports with instrument procedures:

1MO - Mountain Grove Memorial Airport (20 nm NE)
KTVB - Cabool Memorial Airport (30 nm E)
3DW - Downtown Airport (31 nm NW)
KPLK - M Graham Clark Downtown Airport (33 nm SW)
KBBG - Branson Airport (36 nm SW)
 
Loc | Ops | Rwys | IFR | FBO | Links
Com | Nav | Svcs | Stats | Notes

Branson Jet Center
AirBoss

 
Area around KAOV (Ava Bill Martin Memorial Airport)
 
Road maps at: MapQuest Bing Google
 
Aerial photo
WARNING: Photo may not be current or correct
Aerial photo of KAOV (Ava Bill Martin Memorial Airport)
Do you have a better or more recent aerial photo of Ava Bill Martin Memorial Airport that you would like to share? If so, please send us your photo.

 
Sectional chart

 
Airport distance calculator
Flying to Ava Bill Martin Memorial Airport? Find the distance to fly.

From to KAOV

Sunrise and sunset
Times for 22-May-2019
 Local
(UTC-5)
 Zulu
(UTC)
Morning civil twilight05:2910:29
Sunrise05:5910:59
Sunset20:1601:16
Evening civil twilight20:4601:46

Current date and time
Zulu (UTC)  22-May-2019 12:08:26
Local (UTC-5)  22-May-2019 07:08:26
 
METAR
KBBG 
36nm SW 
221151Z 15006KT 10SM BKN180 14/09 A2979
KSGF 
37nm NW 
221152Z 15012KT 10SM CLR 14/10 A2974 RMK AO2 SLP065 70140 T01390100 10144 20133 53017
KBPK 
38nm S 
221153Z AUTO 17005KT 10SM CLR 13/11 A2980 RMK AO2 SLP087 70067 T01330111 10133 20117 53013 TSNO
KUNO 
38nm E 
221153Z AUTO 15004KT 10SM CLR 13/12 A2984 RMK AO2 SLP100 70081 T01330122 10139 20117 53015
KFWB 
38nm SW 
221135Z AUTO 08004KT 10SM VCTS CLR 13/12 A2978 RMK AO2 LTG DSNT SE
KLBO 
41nm N 
221155Z AUTO 15008KT 10SM CLR 13/11 A2976 RMK AO2 LTG DSNT S
KFLP 
43nm S 
221156Z AUTO 15003KT 10SM CLR 14/12 A2982 RMK AO2 SLP092 70083 T01390117 10144 20117 53014
KHRO 
48nm SW 
221153Z AUTO 15009KT 10SM CLR 14/09 A2980 RMK AO2 SLP085 70044 T01440094 10144 20117 53015
M17 
49nm NW 
SuperAWOS
221135Z AUTO 10SM A2972
TAF
KBBG 
36nm SW 
221120Z 2212/2312 15009KT P6SM BKN030 WS020/21035KT FM221300 17010KT P6SM SCT200 WS020/21040KT FM221500 18012G22KT P6SM FEW250 FM230100 17009KT P6SM BKN120 FM230600 17007KT P6SM SCT250 WS020/20035KT PROB30 2308/2309 4SM -SHRA BR BKN150
KSGF 
37nm NW 
221120Z 2212/2312 16013KT P6SM OVC060 WS020/22045KT FM221300 18015G23KT P6SM SCT250 WS020/21045KT FM230000 18013KT 6SM SHRA BR SCT250 FM230500 18011KT 6SM SHRA BR BKN180 WS020/20040KT PROB30 2306/2309 4SM TS BR OVC025CB FM230900 18010KT P6SM BKN080 PROB30 2309/2312 4SM TSRA BR OVC025CB
KBPK 
38nm S 
221140Z 2212/2312 17004KT P6SM SCT050 FM221500 18012G22KT P6SM BKN050 FM230100 16008KT P6SM SCT050 BKN250
NOTAMs
Click for the latest NOTAMs
NOTAMs are issued by the DoD/FAA and will open in a separate window not controlled by AirNav.

 

 
 

FBO, Fuel Providers, and Aircraft Ground Support

  
 Business Name 
 
 Contact 
 
 Services / Description 
 
Fuel Prices
 
Comments
  
City of Ava, Missouri 417-840-2301
417-683-5516
[web site]
[email]
Aviation fuel, Aircraft parking (ramp or tiedown), Passenger terminal and lounge, Aircraft maintenance, Rental cars delivered, Public telephone, Computerized weather, ...

More info about City of Ava, Missouri
Phillips 66
100LL
SS $4.45 
 Updated 12-Apr-2019
 
   write
SS=Self service
Update Fuel Prices
 

Would you like to see your business listed on this page?

 If your business provides an interesting product or service to pilots, flight crews, aircraft, or users of the Ava Bill Martin Memorial Airport, you should consider listing it here.  To start the listing process, click on the button below
 
Add a business
 

Other Pages about Ava Bill Martin Memorial Airport

Update a link
 
Copyright © AirNav, LLC. All rights reserved. Privacy Policy  Contact